sensor_id;sensor_type;location;lat;lon;timestamp;P1;durP1;ratioP1;P2;durP2;ratioP2
7929;SDS011;4010;42.698;23.124;2023-02-28T00:01:05;12.70;;;5.73;;
7929;SDS011;4010;42.698;23.124;2023-02-28T00:03:31;17.70;;;4.77;;
7929;SDS011;4010;42.698;23.124;2023-02-28T00:06:00;6.03;;;4.40;;
7929;SDS011;4010;42.698;23.124;2023-02-28T00:08:27;6.13;;;4.30;;
7929;SDS011;4010;42.698;23.124;2023-02-28T00:10:53;8.63;;;4.03;;
7929;SDS011;4010;42.698;23.124;2023-02-28T00:13:20;8.77;;;4.67;;
7929;SDS011;4010;42.698;23.124;2023-02-28T00:15:47;4.90;;;3.57;;
7929;SDS011;4010;42.698;23.124;2023-02-28T00:18:15;11.90;;;4.43;;
7929;SDS011;4010;42.698;23.124;2023-02-28T00:20:41;17.50;;;5.17;;
7929;SDS011;4010;42.698;23.124;2023-02-28T00:23:08;26.70;;;5.30;;
7929;SDS011;4010;42.698;23.124;2023-02-28T00:25:35;41.93;;;6.23;;
7929;SDS011;4010;42.698;23.124;2023-02-28T00:28:01;58.70;;;7.47;;
7929;SDS011;4010;42.698;23.124;2023-02-28T00:30:28;114.97;;;12.83;;
7929;SDS011;4010;42.698;23.124;2023-02-28T00:32:55;70.90;;;7.97;;
7929;SDS011;4010;42.698;23.124;2023-02-28T00:35:23;59.57;;;7.53;;
7929;SDS011;4010;42.698;23.124;2023-02-28T00:37:50;47.63;;;5.60;;
7929;SDS011;4010;42.698;23.124;2023-02-28T00:40:16;27.70;;;5.00;;
7929;SDS011;4010;42.698;23.124;2023-02-28T00:42:43;11.50;;;5.77;;
7929;SDS011;4010;42.698;23.124;2023-02-28T00:45:10;7.80;;;4.50;;
7929;SDS011;4010;42.698;23.124;2023-02-28T00:47:37;4.83;;;3.50;;
7929;SDS011;4010;42.698;23.124;2023-02-28T00:50:04;5.33;;;3.90;;
7929;SDS011;4010;42.698;23.124;2023-02-28T00:52:33;7.50;;;4.30;;
7929;SDS011;4010;42.698;23.124;2023-02-28T00:54:59;7.73;;;4.37;;
7929;SDS011;4010;42.698;23.124;2023-02-28T00:57:26;7.83;;;3.87;;
7929;SDS011;4010;42.698;23.124;2023-02-28T00:59:53;6.27;;;3.93;;
7929;SDS011;4010;42.698;23.124;2023-02-28T01:02:20;7.03;;;3.30;;
7929;SDS011;4010;42.698;23.124;2023-02-28T01:04:47;5.53;;;3.10;;
7929;SDS011;4010;42.698;23.124;2023-02-28T01:07:14;6.43;;;3.77;;
7929;SDS011;4010;42.698;23.124;2023-02-28T01:09:42;7.10;;;3.97;;
7929;SDS011;4010;42.698;23.124;2023-02-28T01:12:09;7.10;;;4.03;;
7929;SDS011;4010;42.698;23.124;2023-02-28T01:14:36;5.57;;;4.03;;
7929;SDS011;4010;42.698;23.124;2023-02-28T01:17:02;5.47;;;3.77;;
7929;SDS011;4010;42.698;23.124;2023-02-28T01:19:29;6.17;;;4.03;;
7929;SDS011;4010;42.698;23.124;2023-02-28T01:21:56;5.37;;;4.00;;
7929;SDS011;4010;42.698;23.124;2023-02-28T01:24:22;9.30;;;5.20;;
7929;SDS011;4010;42.698;23.124;2023-02-28T01:26:50;6.87;;;4.53;;
7929;SDS011;4010;42.698;23.124;2023-02-28T01:29:17;10.97;;;5.90;;
7929;SDS011;4010;42.698;23.124;2023-02-28T01:31:44;14.20;;;7.13;;
7929;SDS011;4010;42.698;23.124;2023-02-28T01:34:10;9.80;;;5.83;;
7929;SDS011;4010;42.698;23.124;2023-02-28T01:36:37;13.33;;;6.00;;
7929;SDS011;4010;42.698;23.124;2023-02-28T01:39:03;12.13;;;6.07;;
7929;SDS011;4010;42.698;23.124;2023-02-28T01:41:31;13.07;;;7.07;;
7929;SDS011;4010;42.698;23.124;2023-02-28T01:44:01;13.30;;;6.90;;
7929;SDS011;4010;42.698;23.124;2023-02-28T01:46:31;16.40;;;7.23;;
7929;SDS011;4010;42.698;23.124;2023-02-28T01:49:01;14.17;;;7.50;;
7929;SDS011;4010;42.698;23.124;2023-02-28T01:51:35;27.30;;;8.37;;
7929;SDS011;4010;42.698;23.124;2023-02-28T01:54:11;243.43;;;12.87;;
7929;SDS011;4010;42.698;23.124;2023-02-28T01:56:43;26.07;;;8.00;;
7929;SDS011;4010;42.698;23.124;2023-02-28T01:59:17;43.77;;;8.80;;
7929;SDS011;4010;42.698;23.124;2023-02-28T02:01:48;31.87;;;8.73;;
7929;SDS011;4010;42.698;23.124;2023-02-28T02:04:15;61.30;;;8.80;;
7929;SDS011;4010;42.698;23.124;2023-02-28T02:06:43;195.63;;;11.27;;
7929;SDS011;4010;42.698;23.124;2023-02-28T02:09:12;201.13;;;11.60;;
7929;SDS011;4010;42.698;23.124;2023-02-28T02:11:39;114.43;;;9.63;;
7929;SDS011;4010;42.698;23.124;2023-02-28T02:14:31;122.50;;;10.17;;
7929;SDS011;4010;42.698;23.124;2023-02-28T02:17:18;151.27;;;9.83;;
7929;SDS011;4010;42.698;23.124;2023-02-28T02:20:01;131.30;;;10.00;;
7929;SDS011;4010;42.698;23.124;2023-02-28T02:23:02;160.30;;;10.67;;
7929;SDS011;4010;42.698;23.124;2023-02-28T02:25:48;137.73;;;10.27;;
7929;SDS011;4010;42.698;23.124;2023-02-28T02:28:35;173.63;;;10.67;;
7929;SDS011;4010;42.698;23.124;2023-02-28T02:31:24;139.93;;;9.83;;
7929;SDS011;4010;42.698;23.124;2023-02-28T02:37:24;105.07;;;9.50;;
7929;SDS011;4010;42.698;23.124;2023-02-28T02:39:58;101.90;;;8.33;;
7929;SDS011;4010;42.698;23.124;2023-02-28T02:42:31;116.47;;;9.10;;
7929;SDS011;4010;42.698;23.124;2023-02-28T02:45:06;137.37;;;9.43;;
7929;SDS011;4010;42.698;23.124;2023-02-28T02:47:35;147.53;;;10.40;;
7929;SDS011;4010;42.698;23.124;2023-02-28T02:50:07;86.47;;;9.27;;
7929;SDS011;4010;42.698;23.124;2023-02-28T02:52:39;109.73;;;8.77;;
7929;SDS011;4010;42.698;23.124;2023-02-28T02:55:09;90.60;;;7.87;;
7929;SDS011;4010;42.698;23.124;2023-02-28T02:57:40;102.50;;;9.80;;
7929;SDS011;4010;42.698;23.124;2023-02-28T03:00:12;81.10;;;7.70;;
7929;SDS011;4010;42.698;23.124;2023-02-28T03:02:42;104.97;;;8.10;;
7929;SDS011;4010;42.698;23.124;2023-02-28T03:05:14;54.13;;;6.83;;
7929;SDS011;4010;42.698;23.124;2023-02-28T03:07:45;91.20;;;8.67;;
7929;SDS011;4010;42.698;23.124;2023-02-28T03:10:31;77.87;;;7.17;;
7929;SDS011;4010;42.698;23.124;2023-02-28T03:13:19;67.53;;;7.57;;
7929;SDS011;4010;42.698;23.124;2023-02-28T03:16:02;22.70;;;5.10;;
7929;SDS011;4010;42.698;23.124;2023-02-28T03:18:43;50.07;;;5.27;;
7929;SDS011;4010;42.698;23.124;2023-02-28T03:21:22;47.57;;;5.57;;
7929;SDS011;4010;42.698;23.124;2023-02-28T03:23:55;41.20;;;6.00;;
7929;SDS011;4010;42.698;23.124;2023-02-28T03:26:30;67.90;;;6.70;;
7929;SDS011;4010;42.698;23.124;2023-02-28T03:29:02;40.23;;;5.50;;
7929;SDS011;4010;42.698;23.124;2023-02-28T03:31:33;31.67;;;6.07;;
7929;SDS011;4010;42.698;23.124;2023-02-28T03:34:04;64.63;;;6.47;;
7929;SDS011;4010;42.698;23.124;2023-02-28T03:36:37;56.07;;;7.10;;
7929;SDS011;4010;42.698;23.124;2023-02-28T03:39:09;50.10;;;5.30;;
7929;SDS011;4010;42.698;23.124;2023-02-28T03:41:42;37.90;;;5.43;;
7929;SDS011;4010;42.698;23.124;2023-02-28T03:44:14;44.93;;;7.03;;
7929;SDS011;4010;42.698;23.124;2023-02-28T03:46:45;42.27;;;6.60;;
7929;SDS011;4010;42.698;23.124;2023-02-28T03:49:16;36.10;;;7.87;;
7929;SDS011;4010;42.698;23.124;2023-02-28T03:51:49;38.93;;;8.77;;
7929;SDS011;4010;42.698;23.124;2023-02-28T03:54:19;45.90;;;8.83;;
7929;SDS011;4010;42.698;23.124;2023-02-28T03:56:53;36.03;;;6.40;;
7929;SDS011;4010;42.698;23.124;2023-02-28T03:59:25;63.97;;;6.67;;
7929;SDS011;4010;42.698;23.124;2023-02-28T04:01:55;29.60;;;5.13;;
7929;SDS011;4010;42.698;23.124;2023-02-28T04:04:24;30.77;;;4.83;;
7929;SDS011;4010;42.698;23.124;2023-02-28T04:06:52;23.93;;;4.60;;
7929;SDS011;4010;42.698;23.124;2023-02-28T04:09:27;26.07;;;4.63;;
7929;SDS011;4010;42.698;23.124;2023-02-28T04:11:53;35.70;;;5.23;;
7929;SDS011;4010;42.698;23.124;2023-02-28T04:14:21;38.10;;;5.87;;
7929;SDS011;4010;42.698;23.124;2023-02-28T04:16:48;24.40;;;4.90;;
7929;SDS011;4010;42.698;23.124;2023-02-28T04:19:16;31.90;;;6.03;;
7929;SDS011;4010;42.698;23.124;2023-02-28T04:21:43;24.43;;;4.67;;
7929;SDS011;4010;42.698;23.124;2023-02-28T04:24:13;97.47;;;7.37;;
7929;SDS011;4010;42.698;23.124;2023-02-28T04:26:42;85.63;;;7.07;;
7929;SDS011;4010;42.698;23.124;2023-02-28T04:29:12;65.40;;;6.47;;
7929;SDS011;4010;42.698;23.124;2023-02-28T04:31:40;66.97;;;6.23;;
7929;SDS011;4010;42.698;23.124;2023-02-28T04:34:06;68.90;;;7.03;;
7929;SDS011;4010;42.698;23.124;2023-02-28T04:36:33;43.30;;;7.20;;
7929;SDS011;4010;42.698;23.124;2023-02-28T04:39:00;44.13;;;5.90;;
7929;SDS011;4010;42.698;23.124;2023-02-28T04:41:29;33.13;;;5.93;;
7929;SDS011;4010;42.698;23.124;2023-02-28T04:43:55;46.07;;;6.53;;
7929;SDS011;4010;42.698;23.124;2023-02-28T04:46:22;37.00;;;6.60;;
7929;SDS011;4010;42.698;23.124;2023-02-28T04:48:49;29.30;;;5.93;;
7929;SDS011;4010;42.698;23.124;2023-02-28T04:51:16;70.47;;;7.03;;
7929;SDS011;4010;42.698;23.124;2023-02-28T04:53:44;48.20;;;6.57;;
7929;SDS011;4010;42.698;23.124;2023-02-28T04:56:12;60.33;;;7.67;;
7929;SDS011;4010;42.698;23.124;2023-02-28T04:58:41;64.33;;;6.90;;
7929;SDS011;4010;42.698;23.124;2023-02-28T05:01:16;70.83;;;8.40;;
7929;SDS011;4010;42.698;23.124;2023-02-28T05:03:45;80.03;;;8.23;;
7929;SDS011;4010;42.698;23.124;2023-02-28T05:06:11;75.93;;;8.27;;
7929;SDS011;4010;42.698;23.124;2023-02-28T05:08:38;76.10;;;7.87;;
7929;SDS011;4010;42.698;23.124;2023-02-28T05:11:06;83.07;;;8.30;;
7929;SDS011;4010;42.698;23.124;2023-02-28T05:13:41;76.30;;;8.70;;
7929;SDS011;4010;42.698;23.124;2023-02-28T05:16:07;72.20;;;8.27;;
7929;SDS011;4010;42.698;23.124;2023-02-28T05:18:34;69.80;;;8.17;;
7929;SDS011;4010;42.698;23.124;2023-02-28T05:21:01;61.00;;;7.80;;
7929;SDS011;4010;42.698;23.124;2023-02-28T05:23:28;87.80;;;7.83;;
7929;SDS011;4010;42.698;23.124;2023-02-28T05:25:55;90.23;;;9.53;;
7929;SDS011;4010;42.698;23.124;2023-02-28T05:28:22;105.40;;;9.83;;
7929;SDS011;4010;42.698;23.124;2023-02-28T05:30:50;98.17;;;9.17;;
7929;SDS011;4010;42.698;23.124;2023-02-28T05:33:17;84.63;;;9.77;;
7929;SDS011;4010;42.698;23.124;2023-02-28T05:35:44;77.57;;;8.77;;
7929;SDS011;4010;42.698;23.124;2023-02-28T05:38:10;113.73;;;9.13;;
7929;SDS011;4010;42.698;23.124;2023-02-28T05:40:37;71.93;;;8.27;;
7929;SDS011;4010;42.698;23.124;2023-02-28T05:43:05;131.73;;;9.60;;
7929;SDS011;4010;42.698;23.124;2023-02-28T05:45:31;179.23;;;10.63;;
7929;SDS011;4010;42.698;23.124;2023-02-28T05:47:59;186.93;;;11.00;;
7929;SDS011;4010;42.698;23.124;2023-02-28T05:50:26;63.37;;;8.43;;
7929;SDS011;4010;42.698;23.124;2023-02-28T05:52:53;65.23;;;8.40;;
7929;SDS011;4010;42.698;23.124;2023-02-28T05:55:19;93.10;;;9.27;;
7929;SDS011;4010;42.698;23.124;2023-02-28T05:57:46;74.03;;;8.33;;
7929;SDS011;4010;42.698;23.124;2023-02-28T06:00:13;120.97;;;9.80;;
7929;SDS011;4010;42.698;23.124;2023-02-28T06:02:42;105.23;;;9.60;;
7929;SDS011;4010;42.698;23.124;2023-02-28T06:05:12;148.77;;;10.70;;
7929;SDS011;4010;42.698;23.124;2023-02-28T06:07:40;239.37;;;11.30;;
7929;SDS011;4010;42.698;23.124;2023-02-28T06:10:07;200.77;;;10.90;;
7929;SDS011;4010;42.698;23.124;2023-02-28T06:12:35;254.70;;;11.50;;
7929;SDS011;4010;42.698;23.124;2023-02-28T06:15:01;219.63;;;12.97;;
7929;SDS011;4010;42.698;23.124;2023-02-28T06:17:28;202.27;;;10.67;;
7929;SDS011;4010;42.698;23.124;2023-02-28T06:19:55;146.60;;;9.63;;
7929;SDS011;4010;42.698;23.124;2023-02-28T06:22:23;136.77;;;10.90;;
7929;SDS011;4010;42.698;23.124;2023-02-28T06:24:50;181.13;;;10.97;;
7929;SDS011;4010;42.698;23.124;2023-02-28T06:27:17;112.63;;;9.47;;
7929;SDS011;4010;42.698;23.124;2023-02-28T06:29:45;131.07;;;8.80;;
7929;SDS011;4010;42.698;23.124;2023-02-28T06:32:12;134.70;;;10.47;;
7929;SDS011;4010;42.698;23.124;2023-02-28T06:34:38;150.73;;;9.73;;
7929;SDS011;4010;42.698;23.124;2023-02-28T06:37:05;148.73;;;11.30;;
7929;SDS011;4010;42.698;23.124;2023-02-28T06:39:33;155.77;;;12.57;;
7929;SDS011;4010;42.698;23.124;2023-02-28T06:42:00;154.33;;;15.27;;
7929;SDS011;4010;42.698;23.124;2023-02-28T06:44:26;117.67;;;14.63;;
7929;SDS011;4010;42.698;23.124;2023-02-28T06:47:00;141.37;;;13.27;;
7929;SDS011;4010;42.698;23.124;2023-02-28T06:49:27;148.30;;;11.80;;
7929;SDS011;4010;42.698;23.124;2023-02-28T06:51:54;184.90;;;12.37;;
7929;SDS011;4010;42.698;23.124;2023-02-28T06:54:20;58.57;;;9.37;;
7929;SDS011;4010;42.698;23.124;2023-02-28T06:56:49;105.80;;;10.77;;
7929;SDS011;4010;42.698;23.124;2023-02-28T06:59:15;112.20;;;11.83;;
7929;SDS011;4010;42.698;23.124;2023-02-28T07:01:42;98.10;;;11.03;;
7929;SDS011;4010;42.698;23.124;2023-02-28T07:04:09;111.03;;;11.83;;
7929;SDS011;4010;42.698;23.124;2023-02-28T07:06:35;120.30;;;12.77;;
7929;SDS011;4010;42.698;23.124;2023-02-28T07:09:02;112.37;;;11.57;;
7929;SDS011;4010;42.698;23.124;2023-02-28T07:11:30;105.60;;;12.27;;
7929;SDS011;4010;42.698;23.124;2023-02-28T07:13:58;91.30;;;11.83;;
7929;SDS011;4010;42.698;23.124;2023-02-28T07:16:25;94.23;;;11.97;;
7929;SDS011;4010;42.698;23.124;2023-02-28T07:18:52;91.40;;;11.50;;
7929;SDS011;4010;42.698;23.124;2023-02-28T07:21:19;96.73;;;12.40;;
7929;SDS011;4010;42.698;23.124;2023-02-28T07:23:45;56.73;;;12.40;;
7929;SDS011;4010;42.698;23.124;2023-02-28T07:26:13;89.57;;;13.23;;
7929;SDS011;4010;42.698;23.124;2023-02-28T07:28:42;75.07;;;13.87;;
7929;SDS011;4010;42.698;23.124;2023-02-28T07:31:10;109.43;;;15.10;;
7929;SDS011;4010;42.698;23.124;2023-02-28T07:33:38;67.10;;;13.57;;
7929;SDS011;4010;42.698;23.124;2023-02-28T07:36:06;65.20;;;13.70;;
7929;SDS011;4010;42.698;23.124;2023-02-28T07:38:34;123.30;;;13.70;;
7929;SDS011;4010;42.698;23.124;2023-02-28T07:41:01;84.80;;;13.60;;
7929;SDS011;4010;42.698;23.124;2023-02-28T07:43:30;80.00;;;13.17;;
7929;SDS011;4010;42.698;23.124;2023-02-28T07:46:00;80.63;;;12.70;;
7929;SDS011;4010;42.698;23.124;2023-02-28T07:48:30;49.70;;;12.23;;
7929;SDS011;4010;42.698;23.124;2023-02-28T07:50:57;55.43;;;12.67;;
7929;SDS011;4010;42.698;23.124;2023-02-28T07:53:24;33.13;;;11.83;;
7929;SDS011;4010;42.698;23.124;2023-02-28T07:55:54;35.87;;;13.07;;
7929;SDS011;4010;42.698;23.124;2023-02-28T07:58:21;34.50;;;12.33;;
7929;SDS011;4010;42.698;23.124;2023-02-28T08:00:48;45.70;;;11.77;;
7929;SDS011;4010;42.698;23.124;2023-02-28T08:03:15;28.37;;;11.33;;
7929;SDS011;4010;42.698;23.124;2023-02-28T08:05:43;45.33;;;13.47;;
7929;SDS011;4010;42.698;23.124;2023-02-28T08:08:10;50.80;;;13.53;;
7929;SDS011;4010;42.698;23.124;2023-02-28T08:10:37;28.47;;;13.07;;
7929;SDS011;4010;42.698;23.124;2023-02-28T08:13:04;26.73;;;13.77;;
7929;SDS011;4010;42.698;23.124;2023-02-28T08:15:30;39.60;;;14.60;;
7929;SDS011;4010;42.698;23.124;2023-02-28T08:17:57;52.27;;;15.83;;
7929;SDS011;4010;42.698;23.124;2023-02-28T08:20:24;27.80;;;14.40;;
7929;SDS011;4010;42.698;23.124;2023-02-28T08:22:53;42.33;;;15.47;;
7929;SDS011;4010;42.698;23.124;2023-02-28T08:25:20;34.30;;;15.47;;
7929;SDS011;4010;42.698;23.124;2023-02-28T08:27:46;30.67;;;14.27;;
7929;SDS011;4010;42.698;23.124;2023-02-28T08:30:13;33.93;;;15.50;;
7929;SDS011;4010;42.698;23.124;2023-02-28T08:32:41;25.40;;;14.80;;
7929;SDS011;4010;42.698;23.124;2023-02-28T08:35:08;35.03;;;15.47;;
7929;SDS011;4010;42.698;23.124;2023-02-28T08:37:35;37.03;;;14.97;;
7929;SDS011;4010;42.698;23.124;2023-02-28T08:40:04;26.60;;;15.00;;
7929;SDS011;4010;42.698;23.124;2023-02-28T08:42:31;35.67;;;15.77;;
7929;SDS011;4010;42.698;23.124;2023-02-28T08:44:58;36.50;;;16.43;;
7929;SDS011;4010;42.698;23.124;2023-02-28T08:47:25;35.83;;;17.30;;
7929;SDS011;4010;42.698;23.124;2023-02-28T08:49:51;32.53;;;16.53;;
7929;SDS011;4010;42.698;23.124;2023-02-28T08:52:18;29.97;;;16.67;;
7929;SDS011;4010;42.698;23.124;2023-02-28T08:54:45;38.63;;;18.13;;
7929;SDS011;4010;42.698;23.124;2023-02-28T08:57:14;39.07;;;16.97;;
7929;SDS011;4010;42.698;23.124;2023-02-28T08:59:41;30.70;;;17.20;;
7929;SDS011;4010;42.698;23.124;2023-02-28T09:02:08;31.80;;;18.20;;
7929;SDS011;4010;42.698;23.124;2023-02-28T09:04:36;34.37;;;17.70;;
7929;SDS011;4010;42.698;23.124;2023-02-28T09:07:02;36.87;;;16.90;;
7929;SDS011;4010;42.698;23.124;2023-02-28T09:09:29;35.70;;;17.23;;
7929;SDS011;4010;42.698;23.124;2023-02-28T09:11:56;33.30;;;17.50;;
7929;SDS011;4010;42.698;23.124;2023-02-28T09:14:24;32.43;;;17.27;;
7929;SDS011;4010;42.698;23.124;2023-02-28T09:16:51;41.70;;;17.60;;
7929;SDS011;4010;42.698;23.124;2023-02-28T09:19:18;32.23;;;17.47;;
7929;SDS011;4010;42.698;23.124;2023-02-28T09:21:44;40.33;;;21.37;;
7929;SDS011;4010;42.698;23.124;2023-02-28T09:24:11;53.90;;;25.50;;
7929;SDS011;4010;42.698;23.124;2023-02-28T09:26:40;40.53;;;21.77;;
7929;SDS011;4010;42.698;23.124;2023-02-28T09:29:06;38.40;;;20.53;;
7929;SDS011;4010;42.698;23.124;2023-02-28T09:31:34;44.10;;;21.17;;
7929;SDS011;4010;42.698;23.124;2023-02-28T09:34:01;35.40;;;17.97;;
7929;SDS011;4010;42.698;23.124;2023-02-28T09:36:30;40.90;;;19.57;;
7929;SDS011;4010;42.698;23.124;2023-02-28T09:38:58;43.87;;;18.70;;
7929;SDS011;4010;42.698;23.124;2023-02-28T09:41:25;34.27;;;19.03;;
7929;SDS011;4010;42.698;23.124;2023-02-28T09:43:56;41.77;;;19.30;;
7929;SDS011;4010;42.698;23.124;2023-02-28T09:46:28;41.10;;;19.93;;
7929;SDS011;4010;42.698;23.124;2023-02-28T09:49:00;42.47;;;21.30;;
7929;SDS011;4010;42.698;23.124;2023-02-28T09:51:32;40.80;;;20.03;;
7929;SDS011;4010;42.698;23.124;2023-02-28T09:54:04;42.77;;;19.80;;
7929;SDS011;4010;42.698;23.124;2023-02-28T09:56:31;46.90;;;20.13;;
7929;SDS011;4010;42.698;23.124;2023-02-28T09:59:04;38.90;;;17.73;;
7929;SDS011;4010;42.698;23.124;2023-02-28T10:01:42;38.53;;;18.87;;
7929;SDS011;4010;42.698;23.124;2023-02-28T10:04:21;37.57;;;20.07;;
7929;SDS011;4010;42.698;23.124;2023-02-28T10:07:03;40.00;;;19.93;;
7929;SDS011;4010;42.698;23.124;2023-02-28T10:09:42;34.27;;;19.50;;
7929;SDS011;4010;42.698;23.124;2023-02-28T10:12:11;43.80;;;19.47;;
7929;SDS011;4010;42.698;23.124;2023-02-28T10:14:40;35.40;;;19.90;;
7929;SDS011;4010;42.698;23.124;2023-02-28T10:17:12;41.47;;;19.80;;
7929;SDS011;4010;42.698;23.124;2023-02-28T10:19:55;44.17;;;22.40;;
7929;SDS011;4010;42.698;23.124;2023-02-28T10:22:27;39.57;;;21.03;;
7929;SDS011;4010;42.698;23.124;2023-02-28T10:24:57;42.40;;;21.03;;
7929;SDS011;4010;42.698;23.124;2023-02-28T10:27:29;35.43;;;20.33;;
7929;SDS011;4010;42.698;23.124;2023-02-28T10:29:57;38.10;;;19.53;;
7929;SDS011;4010;42.698;23.124;2023-02-28T10:32:26;38.30;;;20.07;;
7929;SDS011;4010;42.698;23.124;2023-02-28T10:34:57;43.67;;;20.40;;
7929;SDS011;4010;42.698;23.124;2023-02-28T10:37:25;34.40;;;19.17;;
7929;SDS011;4010;42.698;23.124;2023-02-28T10:39:52;38.83;;;21.63;;
7929;SDS011;4010;42.698;23.124;2023-02-28T10:42:20;39.50;;;19.87;;
7929;SDS011;4010;42.698;23.124;2023-02-28T10:45:01;35.43;;;18.40;;
7929;SDS011;4010;42.698;23.124;2023-02-28T10:47:31;42.03;;;19.67;;
7929;SDS011;4010;42.698;23.124;2023-02-28T10:50:03;45.87;;;20.60;;
7929;SDS011;4010;42.698;23.124;2023-02-28T10:52:33;35.03;;;19.10;;
7929;SDS011;4010;42.698;23.124;2023-02-28T10:55:13;37.27;;;19.23;;
7929;SDS011;4010;42.698;23.124;2023-02-28T10:57:45;37.10;;;18.13;;
7929;SDS011;4010;42.698;23.124;2023-02-28T11:00:14;33.13;;;18.20;;
7929;SDS011;4010;42.698;23.124;2023-02-28T11:02:42;46.47;;;23.80;;
7929;SDS011;4010;42.698;23.124;2023-02-28T11:05:27;30.63;;;18.23;;
7929;SDS011;4010;42.698;23.124;2023-02-28T11:07:57;33.47;;;17.43;;
7929;SDS011;4010;42.698;23.124;2023-02-28T11:10:31;35.00;;;19.37;;
7929;SDS011;4010;42.698;23.124;2023-02-28T11:13:00;29.67;;;16.07;;
7929;SDS011;4010;42.698;23.124;2023-02-28T11:15:29;29.23;;;16.63;;
7929;SDS011;4010;42.698;23.124;2023-02-28T11:17:58;25.93;;;16.33;;
7929;SDS011;4010;42.698;23.124;2023-02-28T11:20:28;27.70;;;16.23;;
7929;SDS011;4010;42.698;23.124;2023-02-28T11:22:59;27.73;;;15.70;;
7929;SDS011;4010;42.698;23.124;2023-02-28T11:25:28;25.40;;;14.67;;
7929;SDS011;4010;42.698;23.124;2023-02-28T11:27:58;29.33;;;15.60;;
7929;SDS011;4010;42.698;23.124;2023-02-28T11:30:34;29.37;;;16.13;;
7929;SDS011;4010;42.698;23.124;2023-02-28T11:33:18;21.97;;;13.60;;
7929;SDS011;4010;42.698;23.124;2023-02-28T11:35:50;24.93;;;14.00;;
7929;SDS011;4010;42.698;23.124;2023-02-28T11:38:18;26.87;;;14.67;;
7929;SDS011;4010;42.698;23.124;2023-02-28T11:40:46;22.13;;;13.37;;
7929;SDS011;4010;42.698;23.124;2023-02-28T11:43:21;20.17;;;12.80;;
7929;SDS011;4010;42.698;23.124;2023-02-28T11:46:07;19.10;;;13.00;;
7929;SDS011;4010;42.698;23.124;2023-02-28T11:48:49;22.03;;;12.90;;
7929;SDS011;4010;42.698;23.124;2023-02-28T11:51:27;20.23;;;12.90;;
7929;SDS011;4010;42.698;23.124;2023-02-28T11:54:02;23.60;;;11.90;;
7929;SDS011;4010;42.698;23.124;2023-02-28T11:56:50;23.07;;;12.03;;
7929;SDS011;4010;42.698;23.124;2023-02-28T11:59:28;18.40;;;11.57;;
7929;SDS011;4010;42.698;23.124;2023-02-28T12:02:05;21.40;;;11.63;;
7929;SDS011;4010;42.698;23.124;2023-02-28T12:04:47;23.50;;;11.27;;
7929;SDS011;4010;42.698;23.124;2023-02-28T12:07:24;18.40;;;10.63;;
7929;SDS011;4010;42.698;23.124;2023-02-28T12:09:59;17.27;;;9.57;;
7929;SDS011;4010;42.698;23.124;2023-02-28T12:12:37;15.27;;;9.77;;
7929;SDS011;4010;42.698;23.124;2023-02-28T12:15:22;13.60;;;7.40;;
7929;SDS011;4010;42.698;23.124;2023-02-28T12:18:02;12.03;;;7.37;;
7929;SDS011;4010;42.698;23.124;2023-02-28T12:20:36;13.27;;;7.07;;
7929;SDS011;4010;42.698;23.124;2023-02-28T12:23:19;16.80;;;7.83;;
7929;SDS011;4010;42.698;23.124;2023-02-28T12:26:02;14.97;;;7.50;;
7929;SDS011;4010;42.698;23.124;2023-02-28T12:28:40;12.03;;;7.30;;
7929;SDS011;4010;42.698;23.124;2023-02-28T12:31:13;14.13;;;7.93;;
7929;SDS011;4010;42.698;23.124;2023-02-28T12:33:45;11.90;;;7.27;;
7929;SDS011;4010;42.698;23.124;2023-02-28T12:36:14;12.03;;;7.20;;
7929;SDS011;4010;42.698;23.124;2023-02-28T12:38:48;14.63;;;7.43;;
7929;SDS011;4010;42.698;23.124;2023-02-28T12:41:22;15.53;;;8.10;;
7929;SDS011;4010;42.698;23.124;2023-02-28T12:43:55;14.77;;;8.03;;
7929;SDS011;4010;42.698;23.124;2023-02-28T12:46:28;17.13;;;8.97;;
7929;SDS011;4010;42.698;23.124;2023-02-28T12:48:58;18.30;;;7.83;;
7929;SDS011;4010;42.698;23.124;2023-02-28T12:51:31;14.37;;;7.60;;
7929;SDS011;4010;42.698;23.124;2023-02-28T12:54:04;13.00;;;7.70;;
7929;SDS011;4010;42.698;23.124;2023-02-28T12:56:41;14.33;;;8.00;;
7929;SDS011;4010;42.698;23.124;2023-02-28T12:59:14;12.50;;;7.17;;
7929;SDS011;4010;42.698;23.124;2023-02-28T13:02:06;15.00;;;7.17;;
7929;SDS011;4010;42.698;23.124;2023-02-28T13:04:56;12.27;;;6.43;;
7929;SDS011;4010;42.698;23.124;2023-02-28T13:07:52;15.37;;;6.93;;
7929;SDS011;4010;42.698;23.124;2023-02-28T13:10:39;12.90;;;8.07;;
7929;SDS011;4010;42.698;23.124;2023-02-28T13:13:11;15.13;;;7.50;;
7929;SDS011;4010;42.698;23.124;2023-02-28T13:15:42;15.57;;;7.30;;
7929;SDS011;4010;42.698;23.124;2023-02-28T13:18:28;13.67;;;7.87;;
7929;SDS011;4010;42.698;23.124;2023-02-28T13:20:57;13.90;;;6.50;;
7929;SDS011;4010;42.698;23.124;2023-02-28T13:23:40;14.60;;;7.63;;
7929;SDS011;4010;42.698;23.124;2023-02-28T13:26:25;13.77;;;6.57;;
7929;SDS011;4010;42.698;23.124;2023-02-28T13:29:30;13.30;;;7.67;;
7929;SDS011;4010;42.698;23.124;2023-02-28T13:38:16;12.97;;;6.30;;
7929;SDS011;4010;42.698;23.124;2023-02-28T13:40:48;12.77;;;6.30;;
7929;SDS011;4010;42.698;23.124;2023-02-28T13:43:17;11.50;;;5.73;;
7929;SDS011;4010;42.698;23.124;2023-02-28T13:46:05;13.47;;;6.73;;
7929;SDS011;4010;42.698;23.124;2023-02-28T13:48:35;11.80;;;6.37;;
7929;SDS011;4010;42.698;23.124;2023-02-28T13:54:06;13.50;;;6.53;;
7929;SDS011;4010;42.698;23.124;2023-02-28T13:56:50;14.23;;;6.17;;
7929;SDS011;4010;42.698;23.124;2023-02-28T13:59:29;16.57;;;7.00;;
7929;SDS011;4010;42.698;23.124;2023-02-28T14:05:00;14.07;;;6.63;;
7929;SDS011;4010;42.698;23.124;2023-02-28T14:07:29;9.47;;;5.30;;
7929;SDS011;4010;42.698;23.124;2023-02-28T14:10:00;14.17;;;6.90;;
7929;SDS011;4010;42.698;23.124;2023-02-28T14:12:52;8.93;;;5.37;;
7929;SDS011;4010;42.698;23.124;2023-02-28T14:15:41;12.10;;;6.50;;
7929;SDS011;4010;42.698;23.124;2023-02-28T14:18:22;12.37;;;5.87;;
7929;SDS011;4010;42.698;23.124;2023-02-28T14:20:52;12.07;;;6.00;;
7929;SDS011;4010;42.698;23.124;2023-02-28T14:23:31;11.10;;;5.57;;
7929;SDS011;4010;42.698;23.124;2023-02-28T14:26:20;9.23;;;5.47;;
7929;SDS011;4010;42.698;23.124;2023-02-28T14:29:16;15.50;;;5.87;;
7929;SDS011;4010;42.698;23.124;2023-02-28T14:32:02;11.50;;;5.80;;
7929;SDS011;4010;42.698;23.124;2023-02-28T14:34:35;11.53;;;5.80;;
7929;SDS011;4010;42.698;23.124;2023-02-28T14:37:10;10.23;;;5.70;;
7929;SDS011;4010;42.698;23.124;2023-02-28T14:39:42;9.77;;;5.40;;
7929;SDS011;4010;42.698;23.124;2023-02-28T14:42:29;12.60;;;5.97;;
7929;SDS011;4010;42.698;23.124;2023-02-28T14:44:58;10.93;;;5.40;;
7929;SDS011;4010;42.698;23.124;2023-02-28T14:47:27;13.03;;;5.97;;
7929;SDS011;4010;42.698;23.124;2023-02-28T14:49:57;10.70;;;6.27;;
7929;SDS011;4010;42.698;23.124;2023-02-28T14:52:26;10.30;;;5.73;;
7929;SDS011;4010;42.698;23.124;2023-02-28T14:54:55;10.40;;;5.20;;
7929;SDS011;4010;42.698;23.124;2023-02-28T14:57:25;11.90;;;5.20;;
7929;SDS011;4010;42.698;23.124;2023-02-28T14:59:59;7.83;;;5.17;;
7929;SDS011;4010;42.698;23.124;2023-02-28T15:02:31;9.57;;;5.43;;
7929;SDS011;4010;42.698;23.124;2023-02-28T15:05:22;10.43;;;5.80;;
7929;SDS011;4010;42.698;23.124;2023-02-28T15:08:05;15.67;;;5.33;;
7929;SDS011;4010;42.698;23.124;2023-02-28T15:10:37;9.90;;;5.60;;
7929;SDS011;4010;42.698;23.124;2023-02-28T15:13:06;12.07;;;5.20;;
7929;SDS011;4010;42.698;23.124;2023-02-28T15:15:41;15.93;;;5.60;;
7929;SDS011;4010;42.698;23.124;2023-02-28T15:18:13;10.07;;;5.37;;
7929;SDS011;4010;42.698;23.124;2023-02-28T15:20:47;15.93;;;5.80;;